Time;durP1;ratioP1;P1;durP2;ratioP2;P2;SDS_P1;SDS_P2;PMS_P1;PMS_P2;Temp;Humidity;BMP_temperature;BMP_pressure;BME280_temperature;BME280_humidity;BME280_pressure;Samples;Min_cycle;Max_cycle;Signal;HPM_P1;HPM_P2
2022/11/19 00:02:23;;;;;;;3.43;3.13;;;;;;;1.28;62.15;101132.00;5011721;27;99641;-84
2022/11/19 00:04:49;;;;;;;4.50;4.10;;;;;;;1.27;62.04;101139.38;5007991;27;97066;-85
2022/11/19 00:07:15;;;;;;;4.40;3.97;;;;;;;1.20;62.34;101171.28;5034338;27;96859;-84
2022/11/19 00:09:41;;;;;;;5.00;4.00;;;;;;;1.26;62.21;101131.66;5037231;27;97388;-85
2022/11/19 00:14:53;;;;;;;4.60;4.07;;;;;;;1.17;62.66;101137.63;5034035;27;97838;-84
2022/11/19 00:17:19;;;;;;;4.53;4.10;;;;;;;1.16;62.24;101146.16;5027313;27;97374;-84
2022/11/19 00:19:44;;;;;;;4.20;3.90;;;;;;;1.19;62.17;101135.28;5022292;27;97353;-85
2022/11/19 00:22:10;;;;;;;4.70;4.30;;;;;;;1.17;62.06;101126.03;5020640;27;98371;-85
2022/11/19 00:24:35;;;;;;;4.43;4.00;;;;;;;1.13;62.27;101125.34;5028353;27;96657;-86
2022/11/19 00:27:01;;;;;;;5.70;4.23;;;;;;;1.17;62.19;101126.78;5023158;27;96634;-85
2022/11/19 00:29:26;;;;;;;5.00;4.50;;;;;;;1.14;62.11;101162.06;5002767;28;97856;-85
2022/11/19 00:31:52;;;;;;;5.33;4.67;;;;;;;1.13;62.04;101136.94;5004388;28;96914;-85
2022/11/19 00:34:17;;;;;;;5.00;4.23;;;;;;;1.15;62.17;101161.66;5024429;27;97439;-85
2022/11/19 00:36:43;;;;;;;5.27;4.53;;;;;;;1.15;62.23;101148.13;5024486;27;97252;-85
2022/11/19 00:39:08;;;;;;;4.83;4.30;;;;;;;1.13;62.24;101134.22;5024313;27;97832;-85
2022/11/19 00:41:33;;;;;;;4.30;3.90;;;;;;;1.08;62.02;101134.69;5035258;27;97631;-84
2022/11/19 00:43:59;;;;;;;5.40;4.07;;;;;;;1.05;62.31;101164.56;5007303;27;97020;-85
2022/11/19 00:46:27;;;;;;;4.60;4.10;;;;;;;1.03;61.88;101154.13;5006308;27;96916;-85
2022/11/19 00:48:56;;;;;;;5.70;4.20;;;;;;;1.01;62.23;101159.22;5002882;28;97954;-84
2022/11/19 00:51:23;;;;;;;6.07;4.17;;;;;;;0.98;62.39;101154.63;5019410;28;97343;-85
2022/11/19 00:53:51;;;;;;;3.93;3.57;;;;;;;0.97;62.48;101144.97;5014274;28;97068;-85
2022/11/19 00:56:19;;;;;;;5.40;3.90;;;;;;;0.99;62.33;101158.84;5020939;27;97197;-87
2022/11/19 00:58:45;;;;;;;7.20;5.43;;;;;;;0.92;62.18;101155.53;5019275;28;98735;-84
2022/11/19 01:01:12;;;;;;;4.50;4.03;;;;;;;0.92;62.00;101164.38;5028468;27;100293;-86
2022/11/19 01:03:39;;;;;;;4.77;4.27;;;;;;;0.91;62.19;101168.28;5006962;27;97463;-86
2022/11/19 01:06:06;;;;;;;4.67;4.17;;;;;;;0.84;62.20;101168.41;5009210;27;97266;-85
2022/11/19 01:08:33;;;;;;;6.40;5.03;;;;;;;0.82;62.10;101173.47;5020173;27;98268;-85
2022/11/19 01:11:16;;;;;;;4.53;4.13;;;;;;;0.76;62.29;101161.59;5040869;27;97224;-85
2022/11/19 01:13:42;;;;;;;4.20;3.70;;;;;;;0.83;61.99;101196.66;5018886;27;97158;-87
2022/11/19 01:16:32;;;;;;;5.50;4.20;;;;;;;0.84;62.17;101186.59;5023901;27;97497;-86
2022/11/19 01:18:58;;;;;;;3.77;3.47;;;;;;;0.77;62.35;101180.13;5034946;27;100834;-85
2022/11/19 01:21:27;;;;;;;4.53;4.13;;;;;;;0.75;62.16;101176.28;5005258;27;100018;-88
2022/11/19 01:23:53;;;;;;;4.40;4.00;;;;;;;0.75;62.37;101179.78;5019336;27;96833;-86
2022/11/19 01:26:19;;;;;;;5.00;4.50;;;;;;;0.71;62.29;101199.97;5045311;27;97227;-85
2022/11/19 01:28:45;;;;;;;6.20;4.30;;;;;;;0.73;62.26;101192.97;5024967;27;97947;-85
2022/11/19 01:31:15;;;;;;;5.70;4.67;;;;;;;0.70;62.15;101176.75;5041796;27;97594;-85
2022/11/19 01:33:42;;;;;;;4.93;4.13;;;;;;;0.71;62.19;101181.78;5034401;27;98346;-84
2022/11/19 01:36:11;;;;;;;4.50;4.10;;;;;;;0.75;62.33;101190.59;5045974;27;97529;-87
2022/11/19 01:38:36;;;;;;;6.00;4.67;;;;;;;0.72;62.24;101183.28;5029929;27;97928;-85
2022/11/19 01:41:03;;;;;;;4.70;4.30;;;;;;;0.71;62.09;101181.78;5027880;27;97764;-85
2022/11/19 01:43:45;;;;;;;5.57;4.40;;;;;;;0.65;61.94;101188.06;5045588;27;97233;-85
2022/11/19 01:46:14;;;;;;;5.00;4.27;;;;;;;0.67;62.16;101191.13;5039819;27;97195;-85
2022/11/19 01:49:03;;;;;;;4.27;3.87;;;;;;;0.63;62.18;101183.06;5029421;27;97580;-86
2022/11/19 01:51:43;;;;;;;4.57;4.17;;;;;;;0.64;62.27;101191.94;5030555;27;101660;-85
2022/11/19 01:54:37;;;;;;;5.50;4.50;;;;;;;0.62;62.02;101183.47;5027823;27;97091;-85
2022/11/19 01:57:07;;;;;;;4.43;3.90;;;;;;;0.61;62.15;101184.66;5027806;27;97134;-86
2022/11/19 01:59:33;;;;;;;5.00;4.20;;;;;;;0.63;62.20;101193.13;5016438;28;100742;-86
2022/11/19 02:01:59;;;;;;;4.70;4.20;;;;;;;0.59;61.81;101185.03;5021320;27;96790;-86
2022/11/19 02:04:25;;;;;;;4.93;4.30;;;;;;;0.56;61.99;101202.13;5025911;27;97296;-85
2022/11/19 02:06:52;;;;;;;6.60;4.83;;;;;;;0.58;62.38;101209.84;5029200;27;97221;-86
2022/11/19 02:09:18;;;;;;;4.87;4.47;;;;;;;0.50;62.21;101182.09;5029274;27;97454;-85
2022/11/19 02:12:08;;;;;;;5.47;4.60;;;;;;;0.56;61.85;101190.53;5030139;27;97575;-85
2022/11/19 02:14:59;;;;;;;4.57;4.13;;;;;;;0.52;61.80;101190.59;5030881;27;97274;-85
2022/11/19 02:17:27;;;;;;;4.13;3.73;;;;;;;0.51;62.20;101199.09;5022586;27;99181;-85
2022/11/19 02:20:17;;;;;;;4.10;3.70;;;;;;;0.48;61.77;101205.34;5046054;27;97897;-85
2022/11/19 02:23:07;;;;;;;5.10;4.33;;;;;;;0.44;61.98;101204.63;5035762;27;100526;-85
2022/11/19 02:26:00;;;;;;;7.07;4.33;;;;;;;0.39;61.80;101215.94;5021981;27;98238;-85
2022/11/19 02:28:34;;;;;;;5.03;4.27;;;;;;;0.34;62.00;101213.66;5025659;27;96994;-86
2022/11/19 02:31:05;;;;;;;4.60;4.20;;;;;;;0.32;61.78;101219.50;5034299;27;102528;-85
2022/11/19 02:33:47;;;;;;;4.60;4.20;;;;;;;0.28;62.28;101213.38;5046962;27;101488;-84
2022/11/19 02:36:34;;;;;;;4.23;3.87;;;;;;;0.22;62.10;101225.06;5032523;27;97384;-86
2022/11/19 02:39:21;;;;;;;5.20;4.17;;;;;;;0.19;62.00;101220.44;5027694;27;97062;-86
2022/11/19 02:41:58;;;;;;;4.37;3.80;;;;;;;0.16;62.37;101227.44;5030145;27;102673;-86
2022/11/19 02:47:20;;;;;;;4.60;4.17;;;;;;;0.13;62.32;101222.09;5042873;27;97023;-87
2022/11/19 02:49:50;;;;;;;4.40;4.00;;;;;;;0.17;62.36;101228.22;5052908;27;97087;-85
2022/11/19 02:52:17;;;;;;;5.93;4.23;;;;;;;0.16;62.17;101229.38;5048776;27;97963;-85
2022/11/19 02:54:43;;;;;;;5.63;4.80;;;;;;;0.10;62.12;101231.00;5026137;27;98665;-85
2022/11/19 02:57:10;;;;;;;4.77;4.27;;;;;;;0.07;62.40;101229.13;5027227;27;97560;-85
2022/11/19 03:05:37;;;;;;;5.27;4.53;;;;;;;-0.08;62.09;101234.69;5039615;27;101318;-84
2022/11/19 03:08:03;;;;;;;5.03;4.50;;;;;;;-0.09;62.44;101229.69;5027489;27;98911;-85
2022/11/19 03:11:03;;;;;;;5.27;4.60;;;;;;;-0.16;62.37;101233.25;5028015;27;96989;-85
2022/11/19 03:16:52;;;;;;;3.90;3.60;;;;;;;-0.26;62.39;101239.53;5040176;27;101168;-85
2022/11/19 03:19:43;;;;;;;6.30;4.57;;;;;;;-0.26;62.17;101234.13;5026512;27;97171;-86
2022/11/19 03:22:17;;;;;;;4.23;3.83;;;;;;;-0.25;62.62;101235.69;5026462;27;96691;-85
2022/11/19 03:24:48;;;;;;;6.73;5.07;;;;;;;-0.26;62.62;101231.44;5044597;27;98109;-85
2022/11/19 03:27:40;;;;;;;5.07;4.57;;;;;;;-0.23;62.75;101238.75;5045250;27;97320;-85
2022/11/19 03:30:07;;;;;;;4.67;4.20;;;;;;;-0.20;62.63;101231.75;5044663;27;97195;-84
2022/11/19 03:32:42;;;;;;;4.60;3.83;;;;;;;-0.21;62.53;101241.81;5042870;27;97286;-85
2022/11/19 03:35:16;;;;;;;5.23;4.57;;;;;;;-0.23;62.54;101230.63;5041012;27;97706;-85
2022/11/19 03:37:45;;;;;;;5.27;4.47;;;;;;;-0.24;62.11;101241.84;5038533;27;96860;-86
2022/11/19 03:40:14;;;;;;;4.57;4.17;;;;;;;-0.26;62.37;101226.03;5046553;27;97664;-85
2022/11/19 03:42:42;;;;;;;5.90;4.40;;;;;;;-0.32;62.53;101251.19;5035249;27;97391;-85
2022/11/19 03:45:13;;;;;;;4.90;4.13;;;;;;;-0.35;62.47;101252.75;5044387;27;99762;-85
2022/11/19 03:47:40;;;;;;;5.70;4.17;;;;;;;-0.37;62.58;101251.66;5026718;27;101642;-85
2022/11/19 03:50:29;;;;;;;5.43;4.73;;;;;;;-0.38;62.53;101236.59;5027409;27;97104;-85
2022/11/19 03:52:56;;;;;;;4.77;4.37;;;;;;;-0.40;62.40;101268.66;5022378;27;97406;-85
2022/11/19 03:55:30;;;;;;;4.60;3.93;;;;;;;-0.44;62.38;101244.41;5022507;27;100421;-84
2022/11/19 03:58:02;;;;;;;5.20;4.20;;;;;;;-0.46;62.59;101262.16;5020538;27;99101;-84
2022/11/19 04:00:27;;;;;;;5.10;4.20;;;;;;;-0.46;62.71;101272.97;5026624;27;97593;-84
2022/11/19 04:02:53;;;;;;;5.87;4.27;;;;;;;-0.45;62.68;101248.25;5031805;27;96895;-85
2022/11/19 04:05:18;;;;;;;5.00;4.40;;;;;;;-0.46;62.48;101254.81;5028017;27;97969;-85
2022/11/19 04:07:44;;;;;;;4.83;4.20;;;;;;;-0.48;62.39;101267.97;5035339;27;97151;-85
2022/11/19 04:10:09;;;;;;;5.10;4.43;;;;;;;-0.46;62.60;101268.31;5035553;27;97121;-85
2022/11/19 04:12:34;;;;;;;6.87;4.73;;;;;;;-0.47;62.53;101266.03;5048754;27;96670;-85
2022/11/19 04:15:00;;;;;;;5.63;4.30;;;;;;;-0.48;62.63;101264.50;5031886;27;97591;-85
2022/11/19 04:17:25;;;;;;;5.13;4.30;;;;;;;-0.47;62.50;101284.94;5010417;27;99562;-85
2022/11/19 04:19:51;;;;;;;5.40;4.67;;;;;;;-0.48;62.64;101275.31;5024460;27;97270;-85
2022/11/19 04:22:16;;;;;;;4.67;4.13;;;;;;;-0.49;62.52;101277.25;5043771;27;97078;-85
2022/11/19 04:24:42;;;;;;;4.50;4.10;;;;;;;-0.50;62.52;101275.69;5043554;27;99057;-85
2022/11/19 04:27:07;;;;;;;4.50;3.97;;;;;;;-0.48;62.64;101262.56;5028880;27;97014;-85
2022/11/19 04:29:33;;;;;;;7.23;4.07;;;;;;;-0.52;62.54;101290.78;5033148;27;96918;-85
2022/11/19 04:31:58;;;;;;;5.50;4.30;;;;;;;-0.56;62.59;101277.31;5043127;27;97047;-84
2022/11/19 04:34:24;;;;;;;5.10;4.20;;;;;;;-0.62;62.50;101289.72;5029053;27;97847;-85
2022/11/19 04:36:49;;;;;;;5.23;4.40;;;;;;;-0.59;62.17;101267.28;5030951;27;97287;-85
2022/11/19 04:39:14;;;;;;;4.77;4.33;;;;;;;-0.65;62.33;101295.91;5023242;27;96888;-84
2022/11/19 04:41:40;;;;;;;5.70;4.40;;;;;;;-0.62;62.47;101294.34;5024592;27;97312;-84
2022/11/19 04:44:06;;;;;;;5.77;4.67;;;;;;;-0.62;62.43;101251.13;5019676;27;99796;-84
2022/11/19 04:46:31;;;;;;;4.80;4.30;;;;;;;-0.61;62.70;101255.38;5029484;27;97852;-85
2022/11/19 04:48:57;;;;;;;5.40;4.47;;;;;;;-0.64;62.72;101262.34;5026780;27;97485;-84
2022/11/19 04:51:23;;;;;;;6.27;4.60;;;;;;;-0.63;62.49;101266.56;5030708;27;96779;-84
2022/11/19 04:53:49;;;;;;;5.10;4.17;;;;;;;-0.67;62.34;101268.53;5023898;27;98918;-84
2022/11/19 04:56:14;;;;;;;5.10;4.20;;;;;;;-0.69;62.43;101262.78;5032025;27;97857;-84
2022/11/19 04:58:40;;;;;;;4.37;3.97;;;;;;;-0.66;62.40;101280.88;5020372;27;96982;-84
2022/11/19 05:01:06;;;;;;;4.57;4.17;;;;;;;-0.66;62.31;101245.00;5020792;27;97036;-84
2022/11/19 05:03:32;;;;;;;3.80;3.33;;;;;;;-0.64;62.74;101246.13;5028076;27;99882;-84
2022/11/19 05:05:57;;;;;;;5.07;3.97;;;;;;;-0.69;62.36;101297.88;5036197;27;98582;-84
2022/11/19 05:08:23;;;;;;;5.53;4.03;;;;;;;-0.70;62.46;101273.97;5039497;27;97135;-84
2022/11/19 05:10:49;;;;;;;4.33;3.93;;;;;;;-0.70;62.24;101253.16;5041975;27;97160;-83
2022/11/19 05:13:14;;;;;;;5.30;4.80;;;;;;;-0.77;62.26;101243.19;5044499;27;97329;-83
2022/11/19 05:15:40;;;;;;;5.97;4.53;;;;;;;-0.79;62.20;101242.78;5023532;27;97260;-84
2022/11/19 05:18:05;;;;;;;5.03;4.43;;;;;;;-0.82;62.16;101250.94;5039980;27;97371;-84
2022/11/19 05:20:31;;;;;;;5.37;4.30;;;;;;;-0.87;62.59;101264.84;5026289;27;97283;-84
2022/11/19 05:22:56;;;;;;;5.63;4.77;;;;;;;-0.90;62.40;101252.16;5022756;27;99988;-85
2022/11/19 05:25:22;;;;;;;4.67;4.27;;;;;;;-0.92;62.36;101251.81;5027333;27;96744;-84
2022/11/19 05:27:47;;;;;;;5.10;4.50;;;;;;;-0.96;62.37;101251.81;5040154;27;97436;-84
2022/11/19 05:30:13;;;;;;;5.60;4.50;;;;;;;-1.01;62.38;101260.34;5023977;27;97023;-83
2022/11/19 05:32:38;;;;;;;5.37;4.30;;;;;;;-1.05;62.65;101275.78;5024205;27;98730;-85
2022/11/19 05:35:04;;;;;;;5.53;4.03;;;;;;;-1.08;62.59;101292.81;5025071;27;97199;-84
2022/11/19 05:37:30;;;;;;;5.87;4.43;;;;;;;-1.14;62.63;101278.19;5047572;27;97226;-84
2022/11/19 05:39:55;;;;;;;5.87;4.60;;;;;;;-1.13;62.75;101270.84;5026055;27;96866;-84
2022/11/19 05:42:21;;;;;;;5.60;4.70;;;;;;;-1.07;62.78;101305.13;5025926;27;97211;-83
2022/11/19 05:44:47;;;;;;;4.20;3.80;;;;;;;-1.07;62.72;101283.53;5042232;27;97649;-84
2022/11/19 05:47:14;;;;;;;4.30;3.90;;;;;;;-1.07;62.65;101274.69;5025042;27;97163;-84
2022/11/19 05:49:40;;;;;;;5.57;4.10;;;;;;;-1.07;62.55;101283.53;5025322;27;97028;-83
2022/11/19 05:52:06;;;;;;;4.80;3.77;;;;;;;-1.09;62.85;101279.72;5027662;27;97609;-83
2022/11/19 05:54:31;;;;;;;7.87;4.53;;;;;;;-1.05;62.83;101291.25;5020881;27;98338;-83
2022/11/19 05:56:57;;;;;;;4.13;3.60;;;;;;;-1.05;62.56;101286.59;5026724;27;97030;-84
2022/11/19 05:59:23;;;;;;;5.77;4.40;;;;;;;-1.11;62.50;101288.19;5045373;27;96732;-84
2022/11/19 06:01:48;;;;;;;6.00;4.50;;;;;;;-1.11;62.33;101293.59;5022645;27;98290;-84
2022/11/19 06:04:14;;;;;;;5.90;4.83;;;;;;;-1.24;62.47;101286.34;5040117;27;97343;-84
2022/11/19 06:06:40;;;;;;;6.03;4.73;;;;;;;-1.17;62.77;101305.19;5025152;27;96865;-84
2022/11/19 06:09:05;;;;;;;5.67;4.50;;;;;;;-1.19;62.85;101288.63;5052381;27;97307;-83
2022/11/19 06:11:46;;;;;;;4.43;4.03;;;;;;;-1.14;62.98;101288.22;5029032;27;97213;-85
2022/11/19 06:14:13;;;;;;;5.70;4.40;;;;;;;-1.11;62.82;101292.81;5056289;27;97959;-84
2022/11/19 06:16:38;;;;;;;5.57;4.47;;;;;;;-1.06;62.67;101284.31;5023899;27;97072;-84
2022/11/19 06:19:04;;;;;;;5.57;4.57;;;;;;;-1.05;62.58;101281.19;5024947;27;97210;-84
2022/11/19 06:21:30;;;;;;;5.47;4.60;;;;;;;-1.05;62.47;101296.66;5018539;27;97260;-83
2022/11/19 06:23:55;;;;;;;5.57;4.57;;;;;;;-1.07;62.51;101302.41;5040576;27;97685;-83
2022/11/19 06:26:26;;;;;;;6.93;5.23;;;;;;;-1.04;62.39;101309.75;5025523;27;96647;-84
2022/11/19 06:28:52;;;;;;;8.57;5.60;;;;;;;-1.10;62.30;101321.34;5041163;27;96858;-84
2022/11/19 06:31:18;;;;;;;8.27;6.33;;;;;;;-1.12;62.55;101302.09;5022928;27;100332;-83
2022/11/19 06:33:44;;;;;;;8.20;5.97;;;;;;;-1.12;62.47;101313.66;5026864;27;96804;-84
2022/11/19 06:36:09;;;;;;;8.23;6.33;;;;;;;-1.13;62.67;101325.63;5036727;27;97040;-84
2022/11/19 06:38:35;;;;;;;6.27;5.43;;;;;;;-1.09;62.24;101331.00;5045211;27;97211;-83
2022/11/19 06:41:00;;;;;;;7.17;5.63;;;;;;;-1.13;62.18;101332.94;5039327;27;97088;-83
2022/11/19 06:43:26;;;;;;;8.60;6.07;;;;;;;-1.19;62.72;101334.53;5042042;27;97037;-84
2022/11/19 06:45:51;;;;;;;6.03;5.37;;;;;;;-1.14;62.59;101331.41;5026317;27;97077;-84
2022/11/19 06:48:17;;;;;;;11.07;5.23;;;;;;;-1.13;62.50;101324.84;5028066;27;97037;-84
2022/11/19 06:50:45;;;;;;;6.10;5.40;;;;;;;-1.18;62.21;101326.03;5023379;27;99934;-84
2022/11/19 06:53:11;;;;;;;6.00;4.37;;;;;;;-1.26;62.37;101343.44;5043967;27;97290;-83
2022/11/19 06:55:37;;;;;;;4.87;4.30;;;;;;;-1.28;62.53;101321.47;5024495;27;96785;-84
2022/11/19 06:58:04;;;;;;;7.00;5.10;;;;;;;-1.22;62.63;101327.22;5025423;27;97075;-83
2022/11/19 07:00:30;;;;;;;5.70;4.73;;;;;;;-1.21;62.65;101326.06;5026985;27;99896;-84
2022/11/19 07:02:56;;;;;;;6.67;5.03;;;;;;;-1.20;62.35;101317.56;5027850;27;99971;-83
2022/11/19 07:05:21;;;;;;;6.10;5.13;;;;;;;-1.22;62.32;101329.94;5049502;27;96947;-83
2022/11/19 07:07:47;;;;;;;5.87;5.00;;;;;;;-1.22;62.71;101324.53;5026232;27;96939;-83
2022/11/19 07:10:12;;;;;;;5.00;4.23;;;;;;;-1.18;62.56;101331.41;5042500;27;98178;-83
2022/11/19 07:12:38;;;;;;;6.03;4.80;;;;;;;-1.17;62.30;101327.56;5010386;27;99104;-84
2022/11/19 07:15:04;;;;;;;7.00;4.83;;;;;;;-1.21;62.15;101348.41;5029418;27;97176;-83
2022/11/19 07:17:29;;;;;;;5.33;4.50;;;;;;;-1.21;62.66;101323.34;5026212;27;96976;-83
2022/11/19 07:19:55;;;;;;;5.40;4.40;;;;;;;-1.21;62.53;101331.44;5023193;27;97359;-83
2022/11/19 07:22:20;;;;;;;6.27;5.20;;;;;;;-1.18;62.57;101342.22;5043942;27;97356;-83
2022/11/19 07:24:46;;;;;;;7.70;5.27;;;;;;;-1.16;62.42;101331.03;5028905;27;97179;-83
2022/11/19 07:27:11;;;;;;;5.67;5.17;;;;;;;-1.16;62.62;101331.03;5048888;27;97112;-83
2022/11/19 07:29:37;;;;;;;5.60;4.80;;;;;;;-1.14;62.60;101331.41;5026480;27;98271;-83
2022/11/19 07:32:04;;;;;;;5.60;4.73;;;;;;;-1.15;62.31;101349.53;5025179;27;98041;-83
2022/11/19 07:34:29;;;;;;;8.20;5.17;;;;;;;-1.16;62.31;101336.44;5025525;27;97265;-83
2022/11/19 07:36:55;;;;;;;7.10;5.17;;;;;;;-1.14;62.30;101371.91;5026521;27;96868;-83
2022/11/19 07:39:21;;;;;;;7.00;5.00;;;;;;;-1.09;62.24;101361.44;5048136;27;97755;-83
2022/11/19 07:44:31;;;;;;;7.47;6.67;;;;;;;-1.11;62.32;101363.78;5039454;27;97383;-83
2022/11/19 07:46:57;;;;;;;14.53;10.37;;;;;;;-1.13;62.30;101357.22;5026409;27;96967;-82
2022/11/19 07:49:23;;;;;;;10.60;7.67;;;;;;;-1.16;62.28;101360.75;5026157;27;96638;-82
2022/11/19 07:51:49;;;;;;;6.63;5.37;;;;;;;-1.22;62.34;101359.63;5023234;27;97821;-81
2022/11/19 07:54:15;;;;;;;7.30;6.10;;;;;;;-1.24;62.51;101373.50;5025743;27;97009;-81
2022/11/19 07:56:40;;;;;;;6.70;6.00;;;;;;;-1.20;62.18;101354.59;5024125;27;97095;-82
2022/11/19 07:59:06;;;;;;;6.87;4.53;;;;;;;-1.19;62.46;101361.50;5055128;27;97655;-82
2022/11/19 08:01:31;;;;;;;6.07;5.30;;;;;;;-1.15;62.48;101359.56;5026789;27;99055;-82
2022/11/19 08:03:57;;;;;;;5.53;4.93;;;;;;;-1.13;62.54;101373.44;5022533;27;97186;-82
2022/11/19 08:06:28;;;;;;;6.33;5.67;;;;;;;-1.10;62.35;101367.25;5016159;27;97174;-82
2022/11/19 08:08:55;;;;;;;4.80;4.30;;;;;;;-1.05;62.77;101367.59;5033721;27;102156;-82
2022/11/19 08:11:21;;;;;;;5.47;4.57;;;;;;;-0.97;62.59;101363.69;5022797;27;98497;-83
2022/11/19 08:13:46;;;;;;;5.90;4.80;;;;;;;-0.90;62.48;101362.88;5022200;27;96898;-82
2022/11/19 08:18:59;;;;;;;4.80;4.30;;;;;;;-0.80;62.74;101364.72;5035556;27;97341;-83
2022/11/19 08:21:25;;;;;;;6.17;4.80;;;;;;;-0.73;62.57;101345.78;5031438;27;97734;-82
2022/11/19 08:23:50;;;;;;;6.70;4.80;;;;;;;-0.66;62.45;101332.22;5039062;27;96981;-83
2022/11/19 08:26:16;;;;;;;5.90;4.87;;;;;;;-0.60;62.67;101329.84;5043137;27;96814;-83
2022/11/19 08:28:41;;;;;;;6.10;4.80;;;;;;;-0.57;62.46;101337.94;5021826;27;98224;-82
2022/11/19 08:31:08;;;;;;;5.57;4.53;;;;;;;-0.52;62.45;101325.91;5031076;27;97289;-82
2022/11/19 08:33:35;;;;;;;5.47;4.10;;;;;;;-0.50;62.57;101320.91;5023859;27;97325;-83
2022/11/19 08:36:00;;;;;;;5.53;5.00;;;;;;;-0.44;62.74;101328.16;5014518;27;96882;-82
2022/11/19 08:38:26;;;;;;;7.80;5.87;;;;;;;-0.36;62.60;101323.44;5038339;27;97281;-82
2022/11/19 08:42:58;;;;;;;9.57;6.80;;;;;;;-0.26;62.64;101341.50;5018148;27;96760;-83
2022/11/19 08:43:38;;;;;;;8.90;5.80;;;;;;;-0.20;62.74;101340.66;5036088;27;97592;-83
2022/11/19 08:46:05;;;;;;;8.20;6.10;;;;;;;-0.12;62.58;101350.25;5028130;27;97306;-83
2022/11/19 08:48:31;;;;;;;6.73;5.90;;;;;;;-0.05;62.58;101349.41;5022104;27;97590;-82
2022/11/19 08:50:57;;;;;;;8.07;5.80;;;;;;;0.00;62.55;101330.78;5051022;27;98329;-82
2022/11/19 08:53:23;;;;;;;8.33;5.90;;;;;;;0.02;62.43;101333.13;5022699;27;97448;-83
2022/11/19 08:55:51;;;;;;;9.00;6.70;;;;;;;-0.01;62.33;101331.97;5021184;27;97166;-82
2022/11/19 08:58:17;;;;;;;8.57;6.27;;;;;;;-0.02;62.56;101337.78;5024652;27;99792;-82
2022/11/19 09:00:43;;;;;;;8.30;5.97;;;;;;;-0.02;62.69;101346.66;5026642;27;97194;-82
2022/11/19 09:03:08;;;;;;;5.97;4.73;;;;;;;0.00;62.81;101338.91;5021284;27;97237;-82
2022/11/19 09:05:34;;;;;;;6.20;5.10;;;;;;;0.07;62.63;101345.44;5022954;27;97361;-82
2022/11/19 09:07:59;;;;;;;7.57;5.00;;;;;;;0.06;62.93;101341.94;5020108;27;97368;-83
2022/11/19 09:10:25;;;;;;;7.93;5.53;;;;;;;0.06;62.75;101349.28;5032739;27;98312;-82
2022/11/19 09:12:52;;;;;;;7.40;5.17;;;;;;;0.07;63.22;101334.59;5016670;27;97119;-83
2022/11/19 09:15:18;;;;;;;4.70;4.20;;;;;;;0.14;63.03;101337.22;5041185;27;97513;-84
2022/11/19 09:17:44;;;;;;;5.50;4.90;;;;;;;0.24;62.98;101360.69;5046285;27;97362;-82
2022/11/19 09:20:10;;;;;;;6.23;5.00;;;;;;;0.25;63.30;101335.94;5027278;27;98528;-83
2022/11/19 09:22:36;;;;;;;5.27;4.27;;;;;;;0.43;63.02;101343.84;5030318;27;97264;-83
2022/11/19 09:25:02;;;;;;;4.90;4.40;;;;;;;0.53;62.90;101346.41;5028677;27;96862;-82
2022/11/19 09:27:27;;;;;;;6.80;5.50;;;;;;;0.59;62.89;101347.47;5028287;27;97954;-83
2022/11/19 09:29:53;;;;;;;5.17;4.50;;;;;;;0.65;62.94;101353.22;5017967;27;98091;-83
2022/11/19 09:32:19;;;;;;;4.37;3.97;;;;;;;0.71;62.97;101357.78;5016554;27;97732;-83
2022/11/19 09:34:44;;;;;;;4.80;4.30;;;;;;;0.79;62.86;101365.81;5025668;27;96871;-83
2022/11/19 09:37:10;;;;;;;7.17;5.40;;;;;;;0.85;62.82;101353.34;5040116;27;100886;-82
2022/11/19 09:39:36;;;;;;;6.57;4.60;;;;;;;0.92;62.86;101351.28;5020422;27;100764;-83
2022/11/19 09:42:35;;;;;;;5.17;4.23;;;;;;;0.99;63.04;101353.88;5014652;27;96925;-83
2022/11/19 09:45:25;;;;;;;5.23;4.50;;;;;;;1.06;62.69;101359.22;5016940;27;97853;-83
2022/11/19 09:48:09;;;;;;;4.70;4.20;;;;;;;1.16;62.99;101352.84;5034368;27;100907;-82
2022/11/19 09:50:52;;;;;;;5.47;3.90;;;;;;;1.25;62.73;101355.81;5025092;27;100605;-84
2022/11/19 09:53:20;;;;;;;4.40;4.00;;;;;;;1.34;62.79;101345.22;5021718;27;97447;-84
2022/11/19 09:55:49;;;;;;;4.73;4.10;;;;;;;1.40;62.87;101378.03;5022090;27;96991;-83
2022/11/19 09:58:23;;;;;;;5.43;4.50;;;;;;;1.41;62.92;101353.25;5039944;27;96743;-84
2022/11/19 10:00:49;;;;;;;5.33;4.17;;;;;;;1.45;62.77;101353.94;5027951;27;99459;-84
2022/11/19 10:03:17;;;;;;;6.10;4.00;;;;;;;1.50;62.71;101358.91;5028021;27;97746;-83
2022/11/19 10:06:13;;;;;;;7.03;4.40;;;;;;;1.56;62.71;101358.41;5046912;27;97526;-85
2022/11/19 10:08:45;;;;;;;4.60;4.20;;;;;;;1.56;63.04;101355.72;5024461;27;102921;-84
2022/11/19 10:11:40;;;;;;;5.47;3.83;;;;;;;1.61;62.69;101355.25;5041856;27;101625;-85
2022/11/19 10:14:40;;;;;;;5.63;4.00;;;;;;;1.65;62.65;101356.72;5039815;27;97141;-84
2022/11/19 10:17:44;;;;;;;4.03;3.67;;;;;;;1.73;62.67;101351.94;5026743;27;97038;-85
2022/11/19 10:20:21;;;;;;;3.67;3.30;;;;;;;1.84;62.69;101350.56;5029370;27;103161;-84
2022/11/19 10:22:55;;;;;;;3.53;3.23;;;;;;;1.94;62.51;101348.84;5037530;27;97709;-85
2022/11/19 10:25:48;;;;;;;4.10;2.97;;;;;;;2.04;62.26;101342.44;5025975;27;97255;-85
2022/11/19 10:28:19;;;;;;;4.87;4.30;;;;;;;2.11;62.45;101343.09;5024573;27;98454;-83
2022/11/19 10:30:51;;;;;;;6.83;5.00;;;;;;;2.24;62.04;101348.66;5038223;27;97251;-83
2022/11/19 10:33:29;;;;;;;4.60;4.20;;;;;;;2.31;61.58;101343.09;5048107;27;97932;-86
2022/11/19 10:36:01;;;;;;;4.00;3.30;;;;;;;2.37;62.03;101370.50;5020546;27;96896;-84
2022/11/19 10:38:50;;;;;;;3.63;3.00;;;;;;;2.52;61.50;101344.59;5021978;27;96812;-84
2022/11/19 10:41:32;;;;;;;3.30;2.80;;;;;;;2.59;61.43;101347.16;5028138;27;102119;-85
2022/11/19 10:44:42;;;;;;;4.00;3.50;;;;;;;2.64;61.12;101342.00;5021095;27;99736;-83
2022/11/19 10:47:22;;;;;;;3.80;3.43;;;;;;;2.77;61.47;101323.09;5041634;27;97627;-84
2022/11/19 10:49:55;;;;;;;4.27;3.40;;;;;;;2.85;61.69;101327.94;5040659;27;97433;-83
2022/11/19 10:52:33;;;;;;;3.27;2.97;;;;;;;2.93;61.44;101315.72;5026235;27;100877;-84
2022/11/19 10:55:03;;;;;;;3.83;3.13;;;;;;;2.97;61.46;101330.00;5023855;27;101547;-83
2022/11/19 10:57:31;;;;;;;3.30;2.93;;;;;;;3.00;61.01;101321.00;5024536;27;97193;-83
2022/11/19 10:59:58;;;;;;;3.77;3.20;;;;;;;3.02;60.83;101324.06;5018495;27;96975;-84
2022/11/19 11:02:41;;;;;;;2.93;2.70;;;;;;;3.13;60.41;101309.44;5025544;27;104227;-84
2022/11/19 11:05:14;;;;;;;3.20;2.63;;;;;;;3.19;60.63;101310.47;5013610;27;102686;-83
2022/11/19 11:07:48;;;;;;;2.90;2.70;;;;;;;3.31;60.42;101309.78;5015872;27;96893;-84
2022/11/19 11:10:24;;;;;;;2.70;2.50;;;;;;;3.41;60.23;101297.88;5036738;27;97398;-84
2022/11/19 11:15:44;;;;;;;2.53;2.33;;;;;;;3.54;59.71;101301.41;5034877;27;96788;-84
2022/11/19 11:18:11;;;;;;;2.57;2.37;;;;;;;3.63;60.19;101304.28;5019299;27;97116;-83
2022/11/19 11:20:43;;;;;;;2.80;2.43;;;;;;;3.77;60.29;101307.44;5045933;27;96887;-85
2022/11/19 11:23:18;;;;;;;3.00;2.80;;;;;;;3.92;59.76;101287.97;5022095;27;97669;-83
2022/11/19 11:26:05;;;;;;;3.20;2.90;;;;;;;4.01;60.12;101290.84;5044217;27;97982;-85
2022/11/19 11:28:31;;;;;;;3.50;3.20;;;;;;;4.14;60.71;101284.25;5024498;27;97322;-85
2022/11/19 11:31:08;;;;;;;4.87;3.40;;;;;;;4.31;60.23;101274.78;5040682;27;97167;-83
2022/11/19 11:33:52;;;;;;;4.40;3.00;;;;;;;4.53;59.98;101272.19;5025600;27;97951;-83
2022/11/19 11:36:22;;;;;;;3.37;2.90;;;;;;;4.81;60.28;101278.72;5020846;27;97615;-85
2022/11/19 11:38:50;;;;;;;2.80;2.50;;;;;;;5.08;59.75;101281.78;5013979;27;97134;-84
2022/11/19 11:41:18;;;;;;;3.50;2.93;;;;;;;5.30;59.72;101288.81;5009960;27;97024;-85
2022/11/19 11:44:00;;;;;;;3.50;3.10;;;;;;;5.56;58.84;101275.09;5022900;27;98766;-87
2022/11/19 11:46:46;;;;;;;3.40;2.80;;;;;;;5.76;58.27;101256.47;5060802;27;99576;-85
2022/11/19 11:49:36;;;;;;;2.83;2.63;;;;;;;5.89;57.77;101255.22;5030925;27;98290;-87
2022/11/19 11:52:10;;;;;;;3.17;2.53;;;;;;;6.03;58.63;101254.69;5013972;27;97258;-86
2022/11/19 11:54:52;;;;;;;2.13;2.03;;;;;;;6.03;58.71;101248.47;5020112;27;99927;-87
2022/11/19 11:57:20;;;;;;;4.70;3.30;;;;;;;5.96;58.48;101256.94;5020552;27;100525;-85
2022/11/19 11:59:46;;;;;;;5.03;2.57;;;;;;;5.93;58.72;101257.81;5012612;27;98061;-87
2022/11/19 12:02:37;;;;;;;3.20;2.80;;;;;;;5.91;56.69;101249.31;5013052;27;96753;-85
2022/11/19 12:05:16;;;;;;;2.60;2.40;;;;;;;5.92;57.82;101250.81;5033825;27;102377;-87
2022/11/19 12:08:03;;;;;;;2.63;2.43;;;;;;;5.93;57.21;101253.13;5011883;27;98204;-87